Terminal Aerodrome Forecast
Issued by NWS Lubbock, TX

Home | Current Version | Previous Version | Text Only | Print | Product List | Glossary On
Versions: 1 2 3 4 5 6 7 8 9 10 11
000
FTUS44 KLUB 231700
TAFLBB
TAF
KLBB 231721Z 2318/2418 20018G28KT P6SM FEW100 BKN200
     FM240300 25016KT P6SM SKC
     FM240800 36016KT P6SM FEW350=

USA.gov is the U.S. government's official web portal to all federal, state and local government web resources and services.